Canefield Airport

Partly cloudy
29oC (84oF)

Partly cloudy


Winds: South westerly @ 01kt / 02km/h

Humidity: 78%

Barometric Pressure: 1010 mb

Accumulated Rainfall for September: 110.4 mm

Updated: 18:00 local time (22:00 UTC)

Douglas-Charles Airport

Cloudy
26oC (79oF)

Cloudy


Winds: West north westerly @ 03kts / 06km/h

Humidity: 95%

Barometric Pressure: 1012 mb

Accumulated Rainfall for September: 112.3 mm

Updated: 19:00 local time (23:00 UTC)

Satellite Imagery

Satellite Imagery
Click image for larger view. (Source: National Hurricane Center).

Aviation Routine Report (METAR)

Douglas-Charles: METAR TDPD 202300Z 29003KT 9999 FEW017 26/25 Q1012=
Canefield: METAR TDCF 202200Z 23001KT 9999 FEW018 29/24 Q1010=